Time;durP1;ratioP1;P1;durP2;ratioP2;P2;SDS_P1;SDS_P2;PMS_P1;PMS_P2;Temp;Humidity;BMP_temperature;BMP_pressure;BME280_temperature;BME280_humidity;BME280_pressure;Samples;Min_cycle;Max_cycle;Signal;HPM_P1;HPM_P2
2022/11/01 00:02:16;;;;;;;0.90;0.90;;;17.20;95.70;;;;;;4014911;29;20072;-59
2022/11/01 00:04:59;;;;;;;0.20;0.20;;;17.20;95.70;;;;;;4017775;29;20113;-60
2022/11/01 00:07:39;;;;;;;0.00;0.00;;;17.20;95.70;;;;;;4017686;29;20056;-59
2022/11/01 00:10:20;;;;;;;0.00;0.00;;;17.30;95.70;;;;;;4018263;29;20060;-59
2022/11/01 00:13:01;;;;;;;0.22;0.22;;;17.30;95.70;;;;;;4002538;29;20064;-60
2022/11/01 00:15:43;;;;;;;0.00;0.00;;;17.20;95.70;;;;;;4002851;29;20111;-60
2022/11/01 00:18:23;;;;;;;0.05;0.05;;;17.30;95.70;;;;;;4003060;29;20057;-59
2022/11/01 00:21:06;;;;;;;3.63;1.85;;;17.20;95.60;;;;;;4008552;29;20104;-59
2022/11/01 00:23:47;;;;;;;0.05;0.05;;;17.20;95.60;;;;;;4016652;29;20056;-59
2022/11/01 00:26:27;;;;;;;0.40;0.40;;;17.20;95.60;;;;;;4008086;29;20065;-59
2022/11/01 00:29:09;;;;;;;1.15;1.15;;;17.20;95.70;;;;;;4016153;29;20053;-59
2022/11/01 00:31:50;;;;;;;0.00;0.00;;;17.20;95.70;;;;;;4017363;29;20578;-59
2022/11/01 00:34:31;;;;;;;0.22;0.15;;;17.20;95.60;;;;;;4017705;29;20066;-59
2022/11/01 00:37:13;;;;;;;0.10;0.10;;;17.20;95.60;;;;;;4017466;29;20069;-59
2022/11/01 00:39:54;;;;;;;0.40;0.40;;;17.20;96.00;;;;;;4017122;29;20056;-60
2022/11/01 00:42:35;;;;;;;1.05;1.05;;;17.20;95.70;;;;;;4008976;29;20064;-59
2022/11/01 00:45:16;;;;;;;0.10;0.10;;;17.20;95.70;;;;;;4017168;29;20473;-59
2022/11/01 00:47:57;;;;;;;0.60;0.57;;;17.20;95.70;;;;;;4017585;29;20853;-59
2022/11/01 00:50:37;;;;;;;0.00;0.00;;;17.20;95.70;;;;;;4017402;29;20190;-59
2022/11/01 00:53:20;;;;;;;1.75;1.65;;;17.20;95.70;;;;;;4005812;29;20063;-59
2022/11/01 00:56:02;;;;;;;0.13;0.13;;;17.20;95.70;;;;;;4017637;29;20393;-59
2022/11/01 00:58:43;;;;;;;0.00;0.00;;;17.20;96.10;;;;;;4007350;29;20061;-59
2022/11/01 01:01:24;;;;;;;0.30;0.30;;;17.20;95.80;;;;;;4016901;29;20076;-59
2022/11/01 01:04:05;;;;;;;0.60;0.52;;;17.20;95.70;;;;;;4017261;29;20059;-59
2022/11/01 01:06:46;;;;;;;0.00;0.00;;;17.20;95.70;;;;;;4017313;29;20865;-59
2022/11/01 01:09:28;;;;;;;0.10;0.10;;;17.20;95.70;;;;;;4017575;29;20061;-60
2022/11/01 01:12:09;;;;;;;3.83;1.85;;;17.20;95.80;;;;;;4014418;29;20516;-60
2022/11/01 01:14:50;;;;;;;0.95;0.95;;;17.20;95.70;;;;;;4001402;29;20065;-60
2022/11/01 01:17:32;;;;;;;0.00;0.00;;;17.20;96.10;;;;;;4001780;29;20061;-59
2022/11/01 01:20:14;;;;;;;0.30;0.30;;;17.20;95.70;;;;;;4004380;29;20065;-59
2022/11/01 01:22:55;;;;;;;0.00;0.00;;;17.20;95.70;;;;;;4016624;29;20101;-59
2022/11/01 01:25:40;;;;;;;0.43;0.43;;;17.20;95.70;;;;;;4016908;29;20513;-59
2022/11/01 01:28:21;;;;;;;0.08;0.08;;;17.20;95.80;;;;;;4016842;29;20060;-59
2022/11/01 01:31:06;;;;;;;0.35;0.35;;;17.20;95.70;;;;;;4012323;29;20405;-59
2022/11/01 01:33:47;;;;;;;4.57;0.68;;;17.20;95.70;;;;;;4016756;29;20060;-59
2022/11/01 01:36:28;;;;;;;0.52;0.52;;;17.20;95.70;;;;;;4016902;29;20051;-59
2022/11/01 01:39:09;;;;;;;1.17;0.98;;;17.20;95.70;;;;;;4016874;29;20141;-59
2022/11/01 01:41:58;;;;;;;0.30;0.30;;;17.20;96.10;;;;;;3990503;29;20052;-59
2022/11/01 01:45:25;;;;;;;0.35;0.35;;;17.20;95.70;;;;;;4002960;29;20053;-59
2022/11/01 01:48:16;;;;;;;0.00;0.00;;;17.20;95.70;;;;;;4015812;29;20471;-59
2022/11/01 01:51:01;;;;;;;0.00;0.00;;;17.20;95.70;;;;;;4016375;29;20401;-59
2022/11/01 01:53:45;;;;;;;0.10;0.10;;;17.20;95.70;;;;;;4015784;29;20052;-59
2022/11/01 01:56:31;;;;;;;0.00;0.00;;;17.10;95.70;;;;;;3989888;29;20057;-59
2022/11/01 01:59:13;;;;;;;0.10;0.10;;;17.10;95.70;;;;;;4015259;29;20113;-59
2022/11/01 02:01:54;;;;;;;0.17;0.17;;;17.10;95.70;;;;;;4012833;29;20063;-60
2022/11/01 02:04:39;;;;;;;0.20;0.20;;;17.20;95.70;;;;;;4004992;29;20064;-59
2022/11/01 02:07:19;;;;;;;0.10;0.10;;;17.20;95.70;;;;;;4016440;29;20473;-60
2022/11/01 02:10:00;;;;;;;0.00;0.00;;;17.20;95.70;;;;;;4013764;29;20061;-60
2022/11/01 02:12:47;;;;;;;0.10;0.10;;;17.10;95.70;;;;;;4014258;29;20520;-60
2022/11/01 02:15:40;;;;;;;0.00;0.00;;;17.10;96.10;;;;;;4016612;29;20127;-60
2022/11/01 02:18:31;;;;;;;0.55;0.55;;;17.10;95.70;;;;;;4030858;29;20394;-60
2022/11/01 02:21:47;;;;;;;0.03;0.03;;;17.20;96.10;;;;;;4031507;29;20112;-60
2022/11/01 02:24:50;;;;;;;0.63;0.63;;;17.10;95.70;;;;;;4017765;29;20557;-60
2022/11/01 02:27:40;;;;;;;0.25;0.25;;;17.10;95.70;;;;;;4031358;29;20064;-60
2022/11/01 02:30:22;;;;;;;2.72;1.48;;;17.10;95.70;;;;;;4022657;29;20188;-60
2022/11/01 02:33:15;;;;;;;0.00;0.00;;;17.10;95.70;;;;;;4031749;29;20052;-60
2022/11/01 02:36:02;;;;;;;0.00;0.00;;;17.10;95.70;;;;;;4031789;29;20061;-61
2022/11/01 02:38:48;;;;;;;0.00;0.00;;;17.10;95.70;;;;;;4013535;29;20060;-60
2022/11/01 02:41:34;;;;;;;0.60;0.60;;;17.20;95.70;;;;;;4031443;29;20107;-60
2022/11/01 02:44:20;;;;;;;0.63;0.63;;;17.10;95.60;;;;;;4016187;29;20189;-60
2022/11/01 02:47:02;;;;;;;1.42;1.35;;;17.10;95.60;;;;;;4022680;29;20077;-60
2022/11/01 02:49:47;;;;;;;0.00;0.00;;;17.20;95.70;;;;;;4010430;29;20109;-60
2022/11/01 02:52:31;;;;;;;0.28;0.28;;;17.20;95.70;;;;;;4032695;29;20068;-60
2022/11/01 02:55:28;;;;;;;0.00;0.00;;;17.10;95.70;;;;;;4025293;29;20059;-60
2022/11/01 02:58:15;;;;;;;0.00;0.00;;;17.10;95.70;;;;;;4036025;29;20055;-60
2022/11/01 03:00:56;;;;;;;0.00;0.00;;;17.10;96.10;;;;;;4036949;29;20488;-60
2022/11/01 03:03:40;;;;;;;0.00;0.00;;;17.10;96.10;;;;;;4036606;29;20088;-61
2022/11/01 03:06:27;;;;;;;0.25;0.25;;;17.10;95.70;;;;;;4020804;29;20132;-61
2022/11/01 03:09:11;;;;;;;0.00;0.00;;;17.10;95.70;;;;;;4021047;29;20064;-60
2022/11/01 03:11:58;;;;;;;0.00;0.00;;;17.10;95.70;;;;;;4020897;29;20198;-59
2022/11/01 03:14:48;;;;;;;0.00;0.00;;;17.20;95.70;;;;;;4021337;29;20057;-60
2022/11/01 03:17:33;;;;;;;0.00;0.00;;;17.10;95.70;;;;;;4031446;29;20048;-60
2022/11/01 03:20:19;;;;;;;0.75;0.75;;;17.20;95.70;;;;;;4025147;29;20056;-60
2022/11/01 03:23:04;;;;;;;0.00;0.00;;;17.20;95.70;;;;;;4014137;29;20056;-59
2022/11/01 03:25:50;;;;;;;1.05;1.05;;;17.20;95.70;;;;;;4036179;29;20385;-59
2022/11/01 03:28:35;;;;;;;5.53;1.17;;;17.20;95.70;;;;;;4036338;29;20055;-59
2022/11/01 03:31:20;;;;;;;0.00;0.00;;;17.10;95.70;;;;;;4025143;29;20064;-59
2022/11/01 03:34:05;;;;;;;0.00;0.00;;;17.20;95.70;;;;;;4022207;29;20064;-60
2022/11/01 03:36:49;;;;;;;0.00;0.00;;;17.20;95.70;;;;;;4005860;29;20056;-60
2022/11/01 03:39:34;;;;;;;0.20;0.20;;;17.20;95.70;;;;;;4005374;29;20049;-59
2022/11/01 03:42:19;;;;;;;0.00;0.00;;;17.10;95.70;;;;;;4010682;29;20117;-59
2022/11/01 03:45:07;;;;;;;0.30;0.30;;;17.20;95.70;;;;;;4021502;29;20197;-59
2022/11/01 03:47:48;;;;;;;0.00;0.00;;;17.10;95.70;;;;;;4021427;29;20064;-60
2022/11/01 03:50:30;;;;;;;;;;;17.20;95.70;;;;;;4020546;29;20060;-59
2022/11/01 03:53:10;;;;;;;0.35;0.35;;;17.20;95.70;;;;;;4021396;29;19930;-59
2022/11/01 03:55:53;;;;;;;0.20;0.20;;;17.20;95.70;;;;;;4020644;29;20052;-59
2022/11/01 03:58:42;;;;;;;0.00;0.00;;;17.10;96.00;;;;;;4032410;29;20048;-59
2022/11/01 04:01:23;;;;;;;0.20;0.20;;;17.10;95.60;;;;;;4018787;29;20397;-59
2022/11/01 04:04:05;;;;;;;2.97;0.85;;;17.10;95.70;;;;;;4018632;29;20056;-59
2022/11/01 04:06:45;;;;;;;0.20;0.20;;;17.10;95.70;;;;;;4003303;29;20514;-59
2022/11/01 04:09:26;;;;;;;0.38;0.38;;;17.10;95.70;;;;;;4018378;29;20446;-59
2022/11/01 04:12:09;;;;;;;31.52;1.65;;;17.20;95.70;;;;;;4018377;29;20078;-60
2022/11/01 04:20:46;;;;;;;0.00;0.00;;;17.20;95.70;;;;;;4032949;29;20051;-59
2022/11/01 04:23:26;;;;;;;3.67;2.65;;;17.20;95.70;;;;;;4019397;29;20056;-59
2022/11/01 04:26:10;;;;;;;0.00;0.00;;;17.20;95.70;;;;;;4017958;29;20051;-59
2022/11/01 04:28:58;;;;;;;0.03;0.03;;;17.20;95.70;;;;;;4018157;29;20065;-59
2022/11/01 04:31:39;;;;;;;0.00;0.00;;;17.10;95.70;;;;;;4033287;29;20068;-60
2022/11/01 04:34:40;;;;;;;0.00;0.00;;;17.20;95.70;;;;;;4033421;29;20055;-60
2022/11/01 04:37:22;;;;;;;0.13;0.13;;;17.20;95.70;;;;;;4032773;29;20317;-60
2022/11/01 04:40:03;;;;;;;3.97;2.20;;;17.20;95.70;;;;;;4032747;29;20516;-60
2022/11/01 04:42:43;;;;;;;0.57;0.57;;;17.20;95.70;;;;;;4032725;29;20063;-61
2022/11/01 04:45:25;;;;;;;0.45;0.45;;;17.20;95.70;;;;;;4032701;29;20060;-60
2022/11/01 04:48:11;;;;;;;0.00;0.00;;;17.10;95.70;;;;;;4018708;29;20418;-62
2022/11/01 04:50:52;;;;;;;0.00;0.00;;;17.20;96.10;;;;;;4014456;29;20100;-59
2022/11/01 04:53:33;;;;;;;0.00;0.00;;;17.20;95.80;;;;;;4009676;29;20421;-59
2022/11/01 04:56:14;;;;;;;0.15;0.15;;;17.20;95.70;;;;;;4016494;29;20060;-59
2022/11/01 04:58:56;;;;;;;0.43;0.43;;;17.20;95.70;;;;;;4016470;29;20137;-59
2022/11/01 05:01:38;;;;;;;0.00;0.00;;;17.20;95.70;;;;;;4016569;29;20075;-59
2022/11/01 05:04:19;;;;;;;0.03;0.03;;;17.20;95.70;;;;;;4017042;29;20059;-59
2022/11/01 05:07:00;;;;;;;0.00;0.00;;;17.20;95.70;;;;;;4017731;29;20065;-59
2022/11/01 05:09:41;;;;;;;0.00;0.00;;;17.20;95.70;;;;;;4017530;29;20109;-59
2022/11/01 05:12:22;;;;;;;0.10;0.10;;;17.10;95.60;;;;;;4017460;29;20056;-59
2022/11/01 05:15:03;;;;;;;0.00;0.00;;;17.20;95.70;;;;;;4017629;29;20421;-59
2022/11/01 05:17:45;;;;;;;2.42;0.98;;;17.10;95.70;;;;;;4017818;29;20209;-59
2022/11/01 05:20:26;;;;;;;0.00;0.00;;;17.20;95.70;;;;;;4028954;29;20055;-59
2022/11/01 05:23:07;;;;;;;0.52;0.52;;;17.10;95.70;;;;;;4017110;29;20064;-59
2022/11/01 05:25:49;;;;;;;3.00;1.55;;;17.20;95.70;;;;;;4017569;29;20052;-59
2022/11/01 05:28:29;;;;;;;;;;;17.20;96.10;;;;;;4017961;29;20052;-59
2022/11/01 05:31:10;;;;;;;0.00;0.00;;;17.10;95.70;;;;;;4016909;29;20512;-59
2022/11/01 05:33:52;;;;;;;0.52;0.52;;;17.10;95.70;;;;;;4005322;29;20072;-59
2022/11/01 05:36:33;;;;;;;0.55;0.55;;;17.20;95.70;;;;;;4032172;29;20620;-59
2022/11/01 05:39:14;;;;;;;2.80;2.25;;;17.10;95.70;;;;;;4032449;29;20067;-59
2022/11/01 05:41:55;;;;;;;0.45;0.45;;;17.10;95.70;;;;;;4016788;29;20061;-59
2022/11/01 05:44:38;;;;;;;0.43;0.43;;;17.10;95.80;;;;;;4017186;29;20057;-59
2022/11/01 05:47:19;;;;;;;0.00;0.00;;;17.10;95.80;;;;;;4017141;29;20112;-60
2022/11/01 05:50:01;;;;;;;0.15;0.15;;;17.20;95.80;;;;;;4016768;29;20152;-59
2022/11/01 05:52:42;;;;;;;0.10;0.10;;;17.10;95.80;;;;;;4016213;29;20080;-59
2022/11/01 05:55:24;;;;;;;0.00;0.00;;;17.20;95.80;;;;;;4017054;29;20059;-59
2022/11/01 05:58:06;;;;;;;0.00;0.00;;;17.10;95.70;;;;;;4016856;29;20056;-59
2022/11/01 06:00:46;;;;;;;0.00;0.00;;;17.20;95.80;;;;;;4000882;29;20061;-59
2022/11/01 06:03:27;;;;;;;0.28;0.28;;;17.20;95.80;;;;;;4001793;29;20514;-59
2022/11/01 06:06:10;;;;;;;0.00;0.00;;;17.20;95.80;;;;;;4000995;29;20129;-60
2022/11/01 06:08:51;;;;;;;0.52;0.52;;;17.10;95.70;;;;;;3998904;29;20085;-60
2022/11/01 06:11:31;;;;;;;0.00;0.00;;;17.20;95.70;;;;;;4016324;29;20172;-60
2022/11/01 06:14:15;;;;;;;1.95;0.32;;;17.20;95.70;;;;;;4015341;29;20206;-60
2022/11/01 06:16:56;;;;;;;0.00;0.00;;;17.20;95.70;;;;;;4014070;29;20456;-60
2022/11/01 06:19:37;;;;;;;1.27;1.17;;;17.20;95.60;;;;;;4031517;29;20055;-60
2022/11/01 06:22:19;;;;;;;1.35;0.50;;;17.20;95.50;;;;;;4031533;29;20072;-60
2022/11/01 06:25:00;;;;;;;0.00;0.00;;;17.20;95.40;;;;;;4031633;29;20135;-59
2022/11/01 06:27:41;;;;;;;4.90;2.13;;;17.20;95.30;;;;;;4016509;29;20072;-60
2022/11/01 06:30:22;;;;;;;0.00;0.00;;;17.20;95.40;;;;;;4014002;29;20125;-60
2022/11/01 06:33:03;;;;;;;0.82;0.80;;;17.30;95.30;;;;;;4020255;29;20060;-60
2022/11/01 06:35:44;;;;;;;0.05;0.05;;;17.30;95.20;;;;;;4030690;29;20067;-60
2022/11/01 06:38:27;;;;;;;16.13;2.35;;;17.30;95.20;;;;;;4031546;29;20056;-60
2022/11/01 06:41:07;;;;;;;0.10;0.10;;;17.30;95.30;;;;;;4016525;29;20064;-60
2022/11/01 06:43:48;;;;;;;0.00;0.00;;;17.30;95.20;;;;;;4015988;29;20110;-60
2022/11/01 06:46:29;;;;;;;0.00;0.00;;;17.30;95.10;;;;;;4016142;29;20082;-60
2022/11/01 06:49:10;;;;;;;0.00;0.00;;;17.30;95.10;;;;;;4015554;29;20577;-60
2022/11/01 06:51:54;;;;;;;0.63;0.63;;;17.30;95.10;;;;;;4023259;29;20532;-59
2022/11/01 06:54:37;;;;;;;0.00;0.00;;;17.30;95.10;;;;;;4017147;29;20611;-60
2022/11/01 06:57:17;;;;;;;0.00;0.00;;;17.20;94.80;;;;;;4008297;29;20382;-59
2022/11/01 06:59:58;;;;;;;0.00;0.00;;;17.20;94.90;;;;;;4015395;29;20513;-59
2022/11/01 07:02:39;;;;;;;0.03;0.03;;;17.20;94.90;;;;;;4016279;29;20072;-59
2022/11/01 07:05:20;;;;;;;0.00;0.00;;;17.20;94.60;;;;;;4016411;29;20056;-60
2022/11/01 07:08:01;;;;;;;2.63;1.35;;;17.30;94.50;;;;;;4004500;29;20052;-59
2022/11/01 07:10:44;;;;;;;;;;;17.20;94.60;;;;;;4016797;29;20060;-60
2022/11/01 07:13:25;;;;;;;0.10;0.10;;;17.20;94.50;;;;;;4015573;29;19934;-60
2022/11/01 07:16:06;;;;;;;0.10;0.10;;;17.20;94.50;;;;;;4015409;29;20635;-59
2022/11/01 07:18:47;;;;;;;0.03;0.03;;;17.20;94.40;;;;;;4015883;29;20105;-60
2022/11/01 07:21:28;;;;;;;0.00;0.00;;;17.20;94.40;;;;;;4016303;29;20413;-59
2022/11/01 07:24:09;;;;;;;0.35;0.35;;;17.20;94.40;;;;;;4015827;29;20868;-59
2022/11/01 07:26:51;;;;;;;0.00;0.00;;;17.20;94.50;;;;;;4001117;29;20122;-59
2022/11/01 07:29:32;;;;;;;0.00;0.00;;;17.20;94.50;;;;;;4015976;29;20069;-59
2022/11/01 07:32:13;;;;;;;0.57;0.47;;;17.20;94.40;;;;;;4017993;29;20060;-60
2022/11/01 07:34:54;;;;;;;0.00;0.00;;;17.20;94.40;;;;;;4018847;29;20509;-59
2022/11/01 07:37:35;;;;;;;0.00;0.00;;;17.10;94.30;;;;;;4034247;29;20409;-59
2022/11/01 07:40:17;;;;;;;0.00;0.00;;;17.20;94.30;;;;;;4024050;29;20501;-59
2022/11/01 07:43:00;;;;;;;0.00;0.00;;;17.10;94.20;;;;;;4033612;29;20497;-60
2022/11/01 07:45:41;;;;;;;0.00;0.00;;;17.10;94.10;;;;;;4032983;29;20064;-59
2022/11/01 07:48:22;;;;;;;0.08;0.08;;;17.10;94.10;;;;;;4033721;29;20056;-59
2022/11/01 07:51:04;;;;;;;0.00;0.00;;;17.20;94.10;;;;;;4033706;29;20064;-59
2022/11/01 07:53:46;;;;;;;0.10;0.10;;;17.10;93.90;;;;;;4033775;29;20071;-59
2022/11/01 07:56:28;;;;;;;0.60;0.60;;;17.10;93.80;;;;;;4033120;29;20060;-59
2022/11/01 07:59:10;;;;;;;0.00;0.00;;;17.10;93.90;;;;;;4032911;29;20182;-59
2022/11/01 08:01:50;;;;;;;0.00;0.00;;;17.10;93.80;;;;;;4033258;29;20185;-59
2022/11/01 08:04:31;;;;;;;0.00;0.00;;;17.10;93.90;;;;;;4033118;29;20064;-59
2022/11/01 08:07:12;;;;;;;0.00;0.00;;;17.10;93.90;;;;;;4032963;29;20505;-60
2022/11/01 08:09:53;;;;;;;0.00;0.00;;;17.10;93.90;;;;;;4019561;29;20064;-60
2022/11/01 08:12:34;;;;;;;0.00;0.00;;;17.10;93.70;;;;;;4028652;29;20065;-59
2022/11/01 08:15:17;;;;;;;0.00;0.00;;;17.10;93.50;;;;;;4016322;29;20052;-60
2022/11/01 08:17:58;;;;;;;0.00;0.00;;;17.10;93.60;;;;;;4017681;29;20065;-60
2022/11/01 08:20:40;;;;;;;0.00;0.00;;;17.10;93.60;;;;;;4013387;29;20089;-59
2022/11/01 08:23:21;;;;;;;0.00;0.00;;;17.10;93.50;;;;;;3995089;29;20064;-60
2022/11/01 08:26:05;;;;;;;0.00;0.00;;;17.10;93.40;;;;;;4017528;29;20441;-60
2022/11/01 08:28:46;;;;;;;0.00;0.00;;;17.10;93.30;;;;;;4017536;29;20072;-59
2022/11/01 08:31:28;;;;;;;0.00;0.00;;;17.10;93.10;;;;;;4017419;29;20151;-59
2022/11/01 08:34:09;;;;;;;0.00;0.00;;;17.10;92.90;;;;;;4017582;29;20072;-60
2022/11/01 08:36:55;;;;;;;0.17;0.17;;;17.10;92.90;;;;;;4017352;29;20189;-60
2022/11/01 08:39:37;;;;;;;0.00;0.00;;;17.10;92.60;;;;;;4017862;29;20152;-60
2022/11/01 08:42:17;;;;;;;0.52;0.52;;;17.10;92.70;;;;;;4017684;29;20206;-60
2022/11/01 08:44:58;;;;;;;0.00;0.00;;;17.10;92.80;;;;;;4017013;29;20378;-60
2022/11/01 08:47:41;;;;;;;0.10;0.10;;;17.10;92.80;;;;;;4017214;29;20470;-59
2022/11/01 08:50:22;;;;;;;0.00;0.00;;;17.10;92.70;;;;;;4017488;29;20059;-59
2022/11/01 08:53:04;;;;;;;0.00;0.00;;;17.10;92.80;;;;;;4015712;29;20170;-60
2022/11/01 08:55:45;;;;;;;0.00;0.00;;;17.10;92.80;;;;;;4002211;29;20060;-59
2022/11/01 08:58:31;;;;;;;0.00;0.00;;;17.10;92.60;;;;;;3989132;29;20061;-59
2022/11/01 09:01:12;;;;;;;0.00;0.00;;;17.10;92.30;;;;;;4008881;29;20121;-60
2022/11/01 09:03:57;;;;;;;0.08;0.08;;;17.10;92.40;;;;;;3994515;29;20053;-60
2022/11/01 09:06:38;;;;;;;0.00;0.00;;;17.10;92.50;;;;;;4001970;29;20056;-60
2022/11/01 09:09:19;;;;;;;0.10;0.10;;;17.10;92.10;;;;;;4002090;29;20057;-60
2022/11/01 09:12:00;;;;;;;0.00;0.00;;;17.10;92.50;;;;;;4016354;29;20056;-60
2022/11/01 09:14:41;;;;;;;0.20;0.20;;;17.10;92.10;;;;;;4017358;29;20168;-59
2022/11/01 09:17:22;;;;;;;0.00;0.00;;;17.10;92.10;;;;;;4016980;29;20145;-59
2022/11/01 09:20:04;;;;;;;0.00;0.00;;;17.00;91.80;;;;;;4016953;29;20138;-60
2022/11/01 09:22:45;;;;;;;0.00;0.00;;;17.10;91.60;;;;;;4017139;29;20092;-59
2022/11/01 09:25:26;;;;;;;0.00;0.00;;;17.10;91.70;;;;;;4017240;29;20072;-59
2022/11/01 09:28:08;;;;;;;0.00;0.00;;;17.10;91.60;;;;;;4016872;29;20493;-60
2022/11/01 09:30:49;;;;;;;0.08;0.08;;;17.10;91.60;;;;;;4016897;29;20606;-59
2022/11/01 09:33:40;;;;;;;0.90;0.90;;;17.10;92.20;;;;;;4016281;29;20406;-60
2022/11/01 09:36:23;;;;;;;0.00;0.00;;;17.10;92.00;;;;;;4016398;29;20186;-60
2022/11/01 09:39:04;;;;;;;0.08;0.08;;;17.10;91.90;;;;;;4016927;29;20538;-59
2022/11/01 09:41:50;;;;;;;0.00;0.00;;;17.10;92.10;;;;;;4015591;29;20064;-59
2022/11/01 09:44:35;;;;;;;0.00;0.00;;;17.10;91.90;;;;;;4016554;29;20060;-60
2022/11/01 09:47:19;;;;;;;0.00;0.00;;;17.10;91.80;;;;;;4016450;29;20126;-59
2022/11/01 09:50:10;;;;;;;0.00;0.00;;;17.10;91.90;;;;;;4015283;29;20056;-59
2022/11/01 09:52:54;;;;;;;0.00;0.00;;;17.10;92.00;;;;;;4016527;29;20072;-59
2022/11/01 09:55:45;;;;;;;0.00;0.00;;;17.10;92.10;;;;;;4014400;29;20064;-59
2022/11/01 09:58:37;;;;;;;0.00;0.00;;;17.20;92.00;;;;;;4001358;29;20061;-59
2022/11/01 10:01:40;;;;;;;0.30;0.30;;;17.20;91.80;;;;;;4016465;29;20101;-63
2022/11/01 10:04:44;;;;;;;1.33;1.33;;;17.20;92.00;;;;;;4015480;29;20060;-60
2022/11/01 10:07:36;;;;;;;0.00;0.00;;;17.20;92.00;;;;;;4015946;29;20060;-60
2022/11/01 10:10:29;;;;;;;0.28;0.28;;;17.20;92.00;;;;;;4016059;29;20057;-60
2022/11/01 10:13:34;;;;;;;0.28;0.22;;;17.20;91.90;;;;;;4020485;29;20133;-59
2022/11/01 10:16:23;;;;;;;0.00;0.00;;;17.20;91.90;;;;;;4015967;29;20052;-59
2022/11/01 10:19:10;;;;;;;0.00;0.00;;;17.20;92.00;;;;;;4015847;29;20049;-59
2022/11/01 10:21:55;;;;;;;0.00;0.00;;;17.20;92.00;;;;;;4016287;29;20068;-60
2022/11/01 10:24:41;;;;;;;0.00;0.00;;;17.20;91.90;;;;;;4015865;29;20441;-60
2022/11/01 10:27:28;;;;;;;0.00;0.00;;;17.20;91.70;;;;;;4016083;29;20056;-59
2022/11/01 10:30:15;;;;;;;0.00;0.00;;;17.20;91.60;;;;;;4015401;29;20128;-60
2022/11/01 10:33:01;;;;;;;0.55;0.55;;;17.30;91.60;;;;;;4015486;29;20067;-59
2022/11/01 10:35:44;;;;;;;0.00;0.00;;;17.30;91.50;;;;;;4015702;29;20528;-60
2022/11/01 10:38:35;;;;;;;0.00;0.00;;;17.30;91.80;;;;;;4016038;29;20513;-59
2022/11/01 10:41:42;;;;;;;0.67;0.67;;;17.30;91.40;;;;;;4015838;29;20190;-60
2022/11/01 10:44:30;;;;;;;6.00;1.63;;;17.30;91.40;;;;;;4016004;29;20069;-60
2022/11/01 10:47:17;;;;;;;0.00;0.00;;;17.30;91.40;;;;;;4015633;29;20056;-59
2022/11/01 10:50:03;;;;;;;0.00;0.00;;;17.30;91.40;;;;;;4000801;29;20056;-59
2022/11/01 10:52:51;;;;;;;0.00;0.00;;;17.30;91.20;;;;;;4000430;29;20509;-59
2022/11/01 10:55:39;;;;;;;0.00;0.00;;;17.30;91.40;;;;;;4001252;29;20194;-59
2022/11/01 10:58:33;;;;;;;0.20;0.20;;;17.30;91.30;;;;;;4015762;29;20549;-59
2022/11/01 11:01:19;;;;;;;0.00;0.00;;;17.30;91.20;;;;;;4015703;29;20096;-58
2022/11/01 11:04:02;;;;;;;0.00;0.00;;;17.30;91.20;;;;;;4015263;29;20105;-60
2022/11/01 11:06:43;;;;;;;0.00;0.00;;;17.30;91.40;;;;;;4016401;29;20132;-59
2022/11/01 11:09:29;;;;;;;0.00;0.00;;;17.30;91.50;;;;;;4018463;29;20075;-60
2022/11/01 11:12:14;;;;;;;0.00;0.00;;;17.30;91.60;;;;;;4018479;29;20060;-60
2022/11/01 11:15:02;;;;;;;0.00;0.00;;;17.30;91.50;;;;;;4018265;29;20056;-60
2022/11/01 11:17:49;;;;;;;0.00;0.00;;;17.30;91.90;;;;;;4018573;29;20069;-59
2022/11/01 11:20:31;;;;;;;0.00;0.00;;;17.30;91.60;;;;;;4003765;29;20061;-59
2022/11/01 11:23:12;;;;;;;0.00;0.00;;;17.30;91.50;;;;;;3995988;29;20490;-59
2022/11/01 11:25:59;;;;;;;0.00;0.00;;;17.30;91.60;;;;;;4018604;29;20105;-60
2022/11/01 11:28:45;;;;;;;0.57;0.57;;;17.30;91.60;;;;;;4018919;29;20064;-59
2022/11/01 11:31:30;;;;;;;0.00;0.00;;;17.30;91.60;;;;;;4018917;29;20170;-63
2022/11/01 11:34:22;;;;;;;0.00;0.00;;;17.30;91.60;;;;;;4018484;29;20056;-60
2022/11/01 11:37:05;;;;;;;0.00;0.00;;;17.30;91.70;;;;;;4018018;29;20061;-60
2022/11/01 11:40:14;;;;;;;0.00;0.00;;;17.40;91.70;;;;;;4007175;29;20239;-60
2022/11/01 11:43:13;;;;;;;0.80;0.63;;;17.40;91.60;;;;;;4015689;29;20101;-60
2022/11/01 11:46:06;;;;;;;0.00;0.00;;;17.40;91.40;;;;;;4018139;29;20072;-61
2022/11/01 11:48:47;;;;;;;4.47;2.38;;;17.40;91.30;;;;;;4018127;29;20056;-60
2022/11/01 11:51:32;;;;;;;3.20;1.77;;;17.40;91.70;;;;;;4017986;29;20194;-61
2022/11/01 11:54:27;;;;;;;0.00;0.00;;;17.40;91.40;;;;;;3991551;29;20081;-62
2022/11/01 11:57:10;;;;;;;0.08;0.08;;;17.40;91.30;;;;;;4011085;29;20070;-60
2022/11/01 11:59:55;;;;;;;0.00;0.00;;;17.40;91.30;;;;;;4018318;29;20414;-61
2022/11/01 12:02:37;;;;;;;0.00;0.00;;;17.40;91.20;;;;;;4003702;29;20064;-61
2022/11/01 12:05:21;;;;;;;0.00;0.00;;;17.40;91.20;;;;;;4018485;29;20120;-61
2022/11/01 12:08:04;;;;;;;0.00;0.00;;;17.40;91.30;;;;;;4023900;29;20492;-61
2022/11/01 12:10:46;;;;;;;0.35;0.35;;;17.50;91.30;;;;;;4023210;29;20060;-60
2022/11/01 12:13:32;;;;;;;0.00;0.00;;;17.50;91.20;;;;;;4016833;29;20101;-60
2022/11/01 12:16:23;;;;;;;0.00;0.00;;;17.50;91.20;;;;;;4018162;29;20057;-60
2022/11/01 12:19:05;;;;;;;0.00;0.00;;;17.50;91.30;;;;;;4016906;29;20577;-61
2022/11/01 12:21:46;;;;;;;0.00;0.00;;;17.50;91.10;;;;;;4003128;29;20053;-60
2022/11/01 12:24:36;;;;;;;0.00;0.00;;;17.50;91.20;;;;;;4002925;29;20074;-60
2022/11/01 12:27:22;;;;;;;0.00;0.00;;;17.50;91.00;;;;;;4002667;29;20064;-61
2022/11/01 12:30:07;;;;;;;0.00;0.00;;;17.50;91.00;;;;;;4004813;29;20064;-61
2022/11/01 12:32:51;;;;;;;0.00;0.00;;;17.50;91.00;;;;;;4017305;29;20576;-61
2022/11/01 12:35:37;;;;;;;0.00;0.00;;;17.50;91.00;;;;;;4017689;29;20406;-61
2022/11/01 12:38:37;;;;;;;0.00;0.00;;;17.50;91.00;;;;;;4017871;29;20193;-61
2022/11/01 12:41:27;;;;;;;0.25;0.25;;;17.50;91.00;;;;;;4017507;29;20045;-61
2022/11/01 12:44:23;;;;;;;0.38;0.38;;;17.50;91.00;;;;;;4017495;29;20060;-61
2022/11/01 12:47:09;;;;;;;0.00;0.00;;;17.50;91.00;;;;;;4017097;29;20085;-61
2022/11/01 12:49:56;;;;;;;0.00;0.00;;;17.60;91.00;;;;;;4017002;29;20060;-61
2022/11/01 12:52:43;;;;;;;0.00;0.00;;;17.60;91.10;;;;;;4017337;29;20229;-61
2022/11/01 12:55:30;;;;;;;0.00;0.00;;;17.60;91.50;;;;;;4005560;29;20129;-61
2022/11/01 12:58:15;;;;;;;0.00;0.00;;;17.60;91.10;;;;;;4014894;29;20110;-61
2022/11/01 13:01:12;;;;;;;0.05;0.05;;;17.60;91.20;;;;;;4017141;29;20061;-61
2022/11/01 13:04:15;;;;;;;0.15;0.15;;;17.60;91.20;;;;;;4016955;29;20052;-62
2022/11/01 13:07:13;;;;;;;0.00;0.00;;;17.60;91.20;;;;;;3986540;29;20062;-61
2022/11/01 13:10:04;;;;;;;0.00;0.00;;;17.60;91.00;;;;;;4004640;29;20421;-61
2022/11/01 13:12:53;;;;;;;0.20;0.10;;;17.60;91.00;;;;;;4005817;29;20445;-62
2022/11/01 13:15:47;;;;;;;0.00;0.00;;;17.60;91.10;;;;;;4016481;29;20068;-61
2022/11/01 13:18:38;;;;;;;0.00;0.00;;;17.70;91.50;;;;;;4016567;29;20057;-60
2022/11/01 13:21:35;;;;;;;0.00;0.00;;;17.70;91.20;;;;;;4016937;29;20052;-59
2022/11/01 13:24:23;;;;;;;0.00;0.00;;;17.70;91.20;;;;;;4014721;29;20052;-59
2022/11/01 13:27:10;;;;;;;0.20;0.20;;;17.70;91.20;;;;;;4001392;29;20072;-59
2022/11/01 13:29:56;;;;;;;0.00;0.00;;;17.70;91.30;;;;;;4006214;29;20110;-59
2022/11/01 13:32:44;;;;;;;0.00;0.00;;;17.70;91.30;;;;;;4005733;29;20061;-59
2022/11/01 13:35:48;;;;;;;0.00;0.00;;;17.80;91.40;;;;;;4001450;29;20204;-59
2022/11/01 13:38:36;;;;;;;0.00;0.00;;;17.80;91.30;;;;;;3990246;29;20566;-59
2022/11/01 13:41:25;;;;;;;0.70;0.70;;;17.70;91.20;;;;;;4001607;29;20053;-59
2022/11/01 13:44:12;;;;;;;0.00;0.00;;;17.80;91.40;;;;;;4016474;29;20064;-58
2022/11/01 13:47:19;;;;;;;0.10;0.10;;;17.80;91.60;;;;;;4016366;29;20052;-60
2022/11/01 13:50:41;;;;;;;0.43;0.43;;;17.80;91.60;;;;;;4016310;29;20100;-60
2022/11/01 13:53:30;;;;;;;0.00;0.00;;;17.80;91.70;;;;;;4015778;29;20508;-61
2022/11/01 13:56:17;;;;;;;0.38;0.38;;;17.80;91.60;;;;;;4016434;29;20052;-60
2022/11/01 13:58:58;;;;;;;0.00;0.00;;;17.80;91.60;;;;;;4006822;29;20065;-60
2022/11/01 14:01:39;;;;;;;0.00;0.00;;;17.80;91.60;;;;;;4021238;29;20052;-60
2022/11/01 14:04:37;;;;;;;0.00;0.00;;;17.90;91.60;;;;;;4019428;29;20496;-60
2022/11/01 14:07:20;;;;;;;0.00;0.00;;;17.90;91.60;;;;;;4026849;29;20055;-60
2022/11/01 14:10:09;;;;;;;0.13;0.13;;;17.90;91.50;;;;;;4021023;29;20060;-60
2022/11/01 14:13:14;;;;;;;1.20;1.17;;;17.90;91.40;;;;;;4001969;29;20064;-60
2022/11/01 14:16:23;;;;;;;0.00;0.00;;;17.90;91.40;;;;;;4020922;29;20420;-59
2022/11/01 14:19:20;;;;;;;0.00;0.00;;;17.90;91.50;;;;;;4022359;29;20051;-60
2022/11/01 14:22:03;;;;;;;0.00;0.00;;;17.90;91.50;;;;;;4017809;29;20072;-60
2022/11/01 14:24:55;;;;;;;1.20;1.00;;;17.90;91.50;;;;;;4018700;29;20061;-60
2022/11/01 14:27:39;;;;;;;0.00;0.00;;;17.90;91.50;;;;;;4021100;29;20141;-60